createdAt,value
2018-05-23T00:02:20.463Z,21.70
2018-05-23T00:04:47.947Z,21.60
2018-05-23T00:07:15.414Z,21.70
2018-05-23T00:09:42.941Z,21.70
2018-05-23T00:12:10.456Z,21.70
2018-05-23T00:14:38.701Z,21.70
2018-05-23T00:17:06.209Z,21.60
2018-05-23T00:19:33.694Z,21.60
2018-05-23T00:22:01.973Z,21.60
2018-05-23T00:24:29.445Z,21.60
2018-05-23T00:26:56.933Z,21.60
2018-05-23T00:29:24.401Z,21.60
2018-05-23T00:31:51.886Z,21.50
2018-05-23T00:34:19.352Z,21.50
2018-05-23T00:36:46.848Z,21.50
2018-05-23T00:39:15.087Z,21.50
2018-05-23T00:41:42.587Z,21.40
2018-05-23T00:44:10.060Z,21.50
2018-05-23T00:46:37.596Z,21.40
2018-05-23T00:49:05.064Z,21.40
2018-05-23T00:51:32.570Z,21.40
2018-05-23T00:54:00.029Z,21.30
2018-05-23T00:56:27.539Z,21.40
2018-05-23T00:58:55.790Z,21.30
2018-05-23T01:01:23.276Z,21.30
2018-05-23T01:03:50.741Z,21.30
2018-05-23T01:06:18.235Z,21.30
2018-05-23T01:08:46.534Z,21.20
2018-05-23T01:11:14.027Z,21.20
2018-05-23T01:13:41.535Z,21.20
2018-05-23T01:16:09.051Z,21.20
2018-05-23T01:18:36.516Z,21.20
2018-05-23T01:21:04.003Z,21.20
2018-05-23T01:23:31.491Z,21.20
2018-05-23T01:25:59.045Z,21.10
2018-05-23T01:28:26.514Z,21.10
2018-05-23T01:30:54.000Z,21.10
2018-05-23T01:33:21.484Z,21.10
2018-05-23T01:35:48.996Z,21.10
2018-05-23T01:38:16.487Z,21.10
2018-05-23T01:40:44.001Z,21.10
2018-05-23T01:43:11.492Z,21.10
2018-05-23T01:45:38.980Z,21.10
2018-05-23T01:48:07.219Z,21.10
2018-05-23T01:50:34.724Z,21.10
2018-05-23T01:53:02.200Z,21.10
2018-05-23T01:55:29.673Z,21.10
2018-05-23T01:57:57.950Z,21.10
2018-05-23T02:00:25.429Z,21.20
2018-05-23T02:02:52.925Z,21.20
2018-05-23T02:05:21.153Z,21.20
2018-05-23T02:07:48.646Z,21.20
2018-05-23T02:10:16.104Z,21.20
2018-05-23T02:12:44.601Z,21.20
2018-05-23T02:15:12.088Z,21.20
2018-05-23T02:17:39.580Z,21.20
2018-05-23T02:20:07.828Z,21.30
2018-05-23T02:22:35.963Z,21.20
2018-05-23T02:25:04.197Z,21.30
2018-05-23T02:27:31.687Z,21.30
2018-05-23T02:29:59.219Z,21.30
2018-05-23T02:32:26.696Z,21.30
2018-05-23T02:34:54.182Z,21.30
2018-05-23T02:37:21.689Z,21.30
2018-05-23T02:39:49.235Z,21.30
2018-05-23T02:42:17.456Z,21.30
2018-05-23T02:44:44.963Z,21.30
2018-05-23T02:47:12.522Z,21.40
2018-05-23T02:49:39.961Z,21.30
2018-05-23T02:52:07.440Z,21.30
2018-05-23T02:54:34.907Z,21.40
2018-05-23T02:57:02.396Z,21.30
2018-05-23T02:59:30.634Z,21.40
2018-05-23T03:01:58.128Z,21.40
2018-05-23T03:04:25.665Z,21.40
2018-05-23T03:06:53.217Z,21.40
2018-05-23T03:09:20.793Z,21.40
2018-05-23T03:11:49.056Z,21.40
2018-05-23T03:14:17.296Z,21.40
2018-05-23T03:16:44.858Z,21.40
2018-05-23T03:19:12.328Z,21.40
2018-05-23T03:21:39.829Z,21.40
2018-05-23T03:24:07.304Z,21.40
2018-05-23T03:26:34.800Z,21.30
2018-05-23T03:29:02.270Z,21.30
2018-05-23T03:31:30.530Z,21.30
2018-05-23T03:33:58.293Z,21.30
2018-05-23T03:36:25.796Z,21.30
2018-05-23T03:38:53.427Z,21.30
2018-05-23T03:41:20.908Z,21.30
2018-05-23T03:43:48.537Z,21.30
2018-05-23T03:46:16.794Z,21.30
2018-05-23T03:48:44.339Z,21.30
2018-05-23T03:51:11.858Z,21.30
2018-05-23T03:53:39.337Z,21.30
2018-05-23T03:56:07.600Z,21.30
2018-05-23T03:58:35.177Z,21.30
2018-05-23T04:01:15.114Z,21.30
2018-05-23T04:03:54.464Z,21.30
2018-05-23T04:09:24.444Z,21.30
2018-05-23T04:11:51.944Z,21.20
2018-05-23T04:14:19.429Z,21.20
2018-05-23T04:16:47.758Z,21.20
2018-05-23T04:19:15.235Z,21.20
2018-05-23T04:21:42.752Z,21.20
2018-05-23T04:24:10.400Z,21.20
2018-05-23T04:26:37.902Z,21.30
2018-05-23T04:29:06.164Z,21.30
2018-05-23T04:31:33.641Z,21.30
2018-05-23T04:34:01.124Z,21.30
2018-05-23T04:36:28.594Z,21.30
2018-05-23T04:38:56.312Z,21.30
2018-05-23T04:41:23.787Z,21.30
2018-05-23T04:43:51.290Z,21.30
2018-05-23T04:46:18.902Z,21.30
2018-05-23T04:48:47.272Z,21.40
2018-05-23T04:51:15.433Z,21.40
2018-05-23T04:53:42.941Z,21.40
2018-05-23T04:56:11.201Z,21.40
2018-05-23T04:58:38.699Z,21.40
2018-05-23T05:01:06.292Z,21.40
2018-05-23T05:03:34.556Z,21.50
2018-05-23T05:06:02.111Z,21.50
2018-05-23T05:08:30.434Z,21.50
2018-05-23T05:10:58.814Z,21.60
2018-05-23T05:13:26.291Z,21.50
2018-05-23T05:15:54.533Z,21.60
2018-05-23T05:18:22.016Z,21.60
2018-05-23T05:20:49.497Z,21.60
2018-05-23T05:23:16.993Z,21.60
2018-05-23T05:25:44.582Z,21.60
2018-05-23T05:28:13.177Z,21.60
2018-05-23T05:30:41.435Z,21.70
2018-05-23T05:33:09.073Z,21.70
2018-05-23T05:35:36.544Z,21.70
2018-05-23T05:38:04.182Z,21.70
2018-05-23T05:40:32.408Z,21.70
2018-05-23T05:42:59.905Z,21.70
2018-05-23T05:45:27.379Z,21.70
2018-05-23T05:47:54.896Z,21.70
2018-05-23T05:50:23.138Z,21.60
2018-05-23T05:52:50.629Z,21.70
2018-05-23T05:55:18.104Z,21.70
2018-05-23T05:57:45.612Z,21.60
2018-05-23T06:00:13.356Z,21.70
2018-05-23T06:02:40.880Z,21.70
2018-05-23T06:05:08.387Z,21.70
2018-05-23T06:07:35.897Z,21.70
2018-05-23T06:10:04.164Z,21.70
2018-05-23T06:12:32.432Z,21.70
2018-05-23T06:14:59.899Z,21.70
2018-05-23T06:17:27.395Z,21.80
2018-05-23T06:19:54.872Z,21.80
2018-05-23T06:22:23.146Z,21.80
2018-05-23T06:24:50.613Z,21.80
2018-05-23T06:27:18.105Z,21.80
2018-05-23T06:29:45.585Z,21.90
2018-05-23T06:32:13.882Z,22.00
2018-05-23T06:34:41.400Z,21.90
2018-05-23T06:37:08.881Z,22.00
2018-05-23T06:39:36.367Z,22.10
2018-05-23T06:42:03.843Z,22.10
2018-05-23T06:44:31.350Z,22.20
2018-05-23T06:46:58.844Z,22.20
2018-05-23T06:49:26.340Z,22.20
2018-05-23T06:51:53.814Z,22.30
2018-05-23T06:54:21.359Z,22.30
2018-05-23T06:56:48.826Z,22.30
2018-05-23T06:59:16.328Z,22.40
2018-05-23T07:01:43.904Z,22.40
2018-05-23T07:04:11.428Z,22.40
2018-05-23T07:06:38.915Z,22.40
2018-05-23T07:09:06.409Z,22.40
2018-05-23T07:11:33.877Z,22.50
2018-05-23T07:14:01.380Z,22.50
2018-05-23T07:16:29.607Z,22.50
2018-05-23T07:18:57.124Z,22.50
2018-05-23T07:21:25.392Z,22.50
2018-05-23T07:23:52.896Z,22.50
2018-05-23T07:26:20.435Z,22.60
2018-05-23T07:28:48.000Z,22.60
2018-05-23T07:31:16.276Z,22.70
2018-05-23T07:33:43.867Z,22.70
2018-05-23T07:36:11.343Z,22.80
2018-05-23T07:38:38.854Z,22.80
2018-05-23T07:41:06.351Z,22.90
2018-05-23T07:43:33.869Z,23.00
2018-05-23T07:46:02.144Z,23.10
2018-05-23T07:48:29.647Z,23.10
2018-05-23T07:50:57.884Z,23.30
2018-05-23T07:53:25.382Z,23.30
2018-05-23T07:55:52.873Z,23.40
2018-05-23T07:58:21.146Z,23.70
2018-05-23T08:00:48.640Z,23.70
2018-05-23T08:03:16.144Z,23.80
2018-05-23T08:05:43.627Z,23.90
2018-05-23T08:08:11.150Z,24.00
2018-05-23T08:10:39.385Z,24.30
2018-05-23T08:13:06.888Z,24.30
2018-05-23T08:15:34.395Z,24.50
2018-05-23T08:18:01.914Z,24.70
2018-05-23T08:20:29.393Z,24.90
2018-05-23T08:22:56.887Z,25.10
2018-05-23T08:25:24.412Z,25.30
2018-05-23T08:27:51.890Z,25.60
2018-05-23T08:30:19.400Z,25.80
2018-05-23T08:32:47.636Z,26.30
2018-05-23T08:35:15.118Z,26.30
2018-05-23T08:37:42.583Z,26.50
2018-05-23T08:40:10.129Z,26.70
2018-05-23T08:42:37.596Z,26.90
2018-05-23T08:45:06.011Z,27.00
2018-05-23T08:47:33.490Z,27.20
2018-05-23T08:50:00.999Z,27.40
2018-05-23T08:52:28.489Z,27.70
2018-05-23T08:54:56.741Z,28.20
2018-05-23T08:57:24.219Z,28.20
2018-05-23T08:59:51.799Z,28.60
2018-05-23T09:02:20.048Z,29.50
2018-05-23T09:04:47.631Z,29.50
2018-05-23T09:07:15.125Z,30.20
2018-05-23T09:09:42.616Z,30.80
2018-05-23T09:12:10.910Z,32.00
2018-05-23T09:14:38.360Z,32.00
2018-05-23T09:17:05.836Z,32.50
2018-05-23T09:19:34.122Z,33.30
2018-05-23T09:22:02.369Z,33.50
2018-05-23T09:24:29.856Z,33.50
2018-05-23T09:26:57.335Z,33.70
2018-05-23T09:29:24.869Z,33.90
2018-05-23T09:31:53.254Z,34.10
2018-05-23T09:34:20.741Z,34.30
2018-05-23T09:36:48.237Z,34.30
2018-05-23T09:39:16.589Z,34.30
2018-05-23T09:41:44.096Z,34.20
2018-05-23T09:44:11.595Z,34.10
2018-05-23T09:46:39.152Z,34.00
2018-05-23T09:49:07.413Z,33.70
2018-05-23T09:51:34.908Z,33.70
2018-05-23T09:54:02.420Z,33.50
2018-05-23T09:56:30.672Z,33.30
2018-05-23T09:58:58.173Z,33.30
2018-05-23T10:01:25.736Z,33.20
2018-05-23T10:03:53.260Z,33.20
2018-05-23T10:06:20.756Z,33.30
2018-05-23T10:08:48.243Z,33.50
2018-05-23T10:11:15.726Z,33.70
2018-05-23T10:13:43.228Z,34.10
2018-05-23T10:16:10.708Z,34.40
2018-05-23T10:18:38.191Z,34.90
2018-05-23T10:21:05.653Z,35.20
2018-05-23T10:23:33.168Z,35.60
2018-05-23T10:26:00.633Z,35.90
2018-05-23T10:28:28.154Z,36.20
2018-05-23T10:30:56.419Z,36.90
2018-05-23T10:33:24.690Z,37.10
2018-05-23T10:35:52.208Z,37.10
2018-05-23T10:38:19.698Z,37.40
2018-05-23T10:40:47.232Z,37.50
2018-05-23T10:43:15.545Z,37.60
2018-05-23T10:45:43.134Z,37.60
2018-05-23T10:48:10.617Z,37.70
2018-05-23T10:50:38.132Z,37.70
2018-05-23T10:53:05.612Z,37.80
2018-05-23T10:55:33.947Z,37.90
2018-05-23T10:58:01.435Z,37.90
2018-05-23T11:00:29.008Z,37.90
2018-05-23T11:02:56.514Z,38.00
2018-05-23T11:05:24.014Z,38.10
2018-05-23T11:07:51.605Z,38.20
2018-05-23T11:10:19.929Z,38.60
2018-05-23T11:12:47.453Z,38.50
2018-05-23T11:15:15.077Z,38.80
2018-05-23T11:17:42.553Z,39.10
2018-05-23T11:20:10.056Z,39.30
2018-05-23T11:22:37.564Z,39.60
2018-05-23T11:25:05.061Z,39.90
2018-05-23T11:27:33.316Z,40.50
2018-05-23T11:30:00.806Z,40.50
2018-05-23T11:32:28.322Z,40.90
2018-05-23T11:34:56.620Z,41.50
2018-05-23T11:37:24.153Z,41.40
2018-05-23T11:39:51.661Z,41.70
2018-05-23T11:42:19.235Z,42.00
2018-05-23T11:44:46.747Z,42.30
2018-05-23T11:47:14.405Z,42.70
2018-05-23T11:49:41.897Z,43.00
2018-05-23T11:52:09.522Z,43.40
2018-05-23T11:54:37.103Z,43.80
2018-05-23T11:57:04.570Z,44.20
2018-05-23T11:59:32.824Z,44.70
2018-05-23T12:02:00.316Z,44.60
2018-05-23T12:04:27.884Z,44.90
2018-05-23T12:06:55.403Z,45.10
2018-05-23T12:09:22.919Z,45.20
2018-05-23T12:11:50.397Z,45.40
2018-05-23T12:14:17.903Z,45.70
2018-05-23T12:16:45.437Z,45.90
2018-05-23T12:19:12.927Z,46.10
2018-05-23T12:21:41.186Z,46.60
2018-05-23T12:24:08.725Z,46.60
2018-05-23T12:26:36.205Z,46.90
2018-05-23T12:29:03.684Z,47.10
2018-05-23T12:31:31.297Z,47.20
2018-05-23T12:33:59.616Z,47.40
2018-05-23T12:36:27.160Z,47.40
2018-05-23T12:38:55.500Z,47.60
2018-05-23T12:41:24.024Z,47.60
2018-05-23T12:43:52.302Z,47.80
2018-05-23T12:46:19.806Z,47.80
2018-05-23T12:48:47.300Z,47.80
2018-05-23T12:51:14.820Z,47.90
2018-05-23T12:53:42.284Z,48.00
2018-05-23T12:56:09.814Z,47.90
2018-05-23T12:58:37.316Z,47.70
2018-05-23T13:01:04.825Z,47.50
2018-05-23T13:03:33.061Z,47.10
2018-05-23T13:06:00.559Z,47.10
2018-05-23T13:08:28.162Z,46.90
2018-05-23T13:10:56.455Z,46.40
2018-05-23T13:13:23.990Z,46.30
2018-05-23T13:15:51.488Z,46.00
2018-05-23T13:18:19.736Z,45.30
2018-05-23T13:20:47.244Z,45.30
2018-05-23T13:23:15.509Z,45.50
2018-05-23T13:25:42.992Z,45.50
2018-05-23T13:28:10.463Z,45.80
2018-05-23T13:30:37.956Z,46.30
2018-05-23T13:33:06.209Z,47.20
2018-05-23T13:35:33.687Z,47.20
2018-05-23T13:38:01.220Z,47.70
2018-05-23T13:40:28.739Z,48.10
2018-05-23T13:42:56.237Z,48.60
2018-05-23T13:45:24.549Z,49.20
2018-05-23T13:47:52.045Z,49.20
2018-05-23T13:50:19.545Z,49.40
2018-05-23T13:52:47.071Z,49.50
2018-05-23T13:55:14.675Z,49.70
2018-05-23T13:57:42.120Z,49.60
2018-05-23T14:00:09.678Z,49.30
2018-05-23T14:02:37.166Z,48.80
2018-05-23T14:05:04.670Z,48.10
2018-05-23T14:07:32.147Z,47.40
2018-05-23T14:09:59.756Z,46.60
2018-05-23T14:12:27.650Z,45.80
2018-05-23T14:14:55.225Z,45.00
2018-05-23T14:17:22.802Z,44.30
2018-05-23T14:19:50.291Z,43.60
2018-05-23T14:22:17.820Z,42.90
2018-05-23T14:24:45.328Z,42.20
2018-05-23T14:27:12.829Z,41.60
2018-05-23T14:29:40.331Z,41.00
2018-05-23T14:32:07.956Z,40.50
2018-05-23T14:34:35.497Z,40.00
2018-05-23T14:37:02.975Z,39.50
2018-05-23T14:39:30.482Z,39.00
2018-05-23T14:41:58.776Z,38.10
2018-05-23T14:44:26.254Z,38.10
2018-05-23T14:46:53.768Z,37.70
2018-05-23T14:49:21.253Z,37.30
2018-05-23T14:51:48.808Z,36.80
2018-05-23T14:54:16.296Z,36.30
2018-05-23T14:56:43.787Z,35.90
2018-05-23T14:59:11.271Z,35.40
2018-05-23T15:01:38.839Z,35.00
2018-05-23T15:04:06.303Z,34.60
2018-05-23T15:06:33.796Z,34.30
2018-05-23T15:09:01.285Z,33.80
2018-05-23T15:11:29.566Z,33.10
2018-05-23T15:13:57.885Z,32.70
2018-05-23T15:16:25.486Z,32.70
2018-05-23T15:18:52.969Z,32.30
2018-05-23T15:21:20.462Z,32.10
2018-05-23T15:23:47.941Z,31.70
2018-05-23T15:26:16.241Z,31.30
2018-05-23T15:28:44.476Z,31.00
2018-05-23T15:31:11.989Z,31.00
2018-05-23T15:33:39.456Z,30.80
2018-05-23T15:36:06.990Z,30.60
2018-05-23T15:38:35.188Z,30.30
2018-05-23T15:41:02.687Z,30.30
2018-05-23T15:43:30.156Z,30.20
2018-05-23T15:45:57.659Z,30.00
2018-05-23T15:48:25.160Z,29.90
2018-05-23T15:50:52.846Z,29.80
2018-05-23T15:53:20.311Z,29.70
2018-05-23T15:55:47.828Z,29.60
2018-05-23T15:58:16.096Z,29.30
2018-05-23T16:00:43.778Z,29.30
2018-05-23T16:03:11.255Z,29.20
2018-05-23T16:05:38.769Z,29.10
2018-05-23T16:08:06.308Z,29.00
2018-05-23T16:10:34.596Z,28.80
2018-05-23T16:13:02.092Z,28.80
2018-05-23T16:15:29.613Z,28.70
2018-05-23T16:17:57.957Z,28.50
2018-05-23T16:20:25.509Z,28.50
2018-05-23T16:22:53.768Z,28.30
2018-05-23T16:25:21.265Z,28.30
2018-05-23T16:27:48.794Z,28.20
2018-05-23T16:30:16.268Z,28.20
2018-05-23T16:32:43.768Z,28.10
2018-05-23T16:35:11.324Z,28.00
2018-05-23T16:37:38.753Z,28.00
2018-05-23T16:40:06.252Z,27.90
2018-05-23T16:42:33.743Z,27.80
2018-05-23T16:45:01.265Z,27.70
2018-05-23T16:47:28.788Z,27.70
2018-05-23T16:49:56.326Z,27.60
2018-05-23T16:52:23.986Z,27.50
2018-05-23T16:54:51.514Z,27.40
2018-05-23T16:57:18.990Z,27.30
2018-05-23T16:59:46.516Z,27.20
2018-05-23T17:02:14.015Z,27.10
2018-05-23T17:04:41.576Z,27.00
2018-05-23T17:07:09.137Z,26.90
2018-05-23T17:09:36.672Z,26.80
2018-05-23T17:12:04.993Z,26.60
2018-05-23T17:14:32.558Z,26.60
2018-05-23T17:17:00.056Z,26.60
2018-05-23T17:19:28.014Z,26.60
2018-05-23T17:21:55.524Z,26.50
2018-05-23T17:24:23.195Z,26.50
2018-05-23T17:26:50.746Z,26.40
2018-05-23T17:29:18.223Z,26.40
2018-05-23T17:31:45.709Z,26.40
2018-05-23T17:34:13.172Z,26.30
2018-05-23T17:36:40.664Z,26.40
2018-05-23T17:39:08.264Z,26.30
2018-05-23T17:41:36.563Z,26.20
2018-05-23T17:44:04.092Z,26.20
2018-05-23T17:46:31.605Z,26.20
2018-05-23T17:49:00.146Z,26.10
2018-05-23T17:51:27.652Z,26.20
2018-05-23T17:53:55.204Z,26.10
2018-05-23T17:56:23.836Z,26.10
2018-05-23T17:58:51.317Z,26.00
2018-05-23T18:01:18.824Z,26.00
2018-05-23T18:03:46.332Z,26.00
2018-05-23T18:06:13.871Z,26.00
2018-05-23T18:08:41.344Z,26.00
2018-05-23T18:11:08.859Z,25.90
2018-05-23T18:13:37.100Z,25.90
2018-05-23T18:16:04.589Z,25.90
2018-05-23T18:18:32.115Z,25.90
2018-05-23T18:20:59.687Z,25.80
2018-05-23T18:23:27.331Z,25.80
2018-05-23T18:25:55.792Z,25.70
2018-05-23T18:28:23.299Z,25.70
2018-05-23T18:30:50.756Z,25.70
2018-05-23T18:33:18.252Z,25.70
2018-05-23T18:35:46.669Z,25.60
2018-05-23T18:38:14.169Z,25.60
2018-05-23T18:40:41.677Z,25.60
2018-05-23T18:43:09.200Z,25.50
2018-05-23T18:45:36.742Z,25.50
2018-05-23T18:48:04.261Z,25.40
2018-05-23T18:50:31.747Z,25.40
2018-05-23T18:52:59.275Z,25.30
2018-05-23T18:55:26.742Z,25.30
2018-05-23T18:57:54.253Z,25.20
2018-05-23T19:00:21.848Z,25.20
2018-05-23T19:02:49.348Z,25.10
2018-05-23T19:05:16.860Z,25.10
2018-05-23T19:07:44.369Z,25.00
2018-05-23T19:10:12.642Z,24.90
2018-05-23T19:12:40.132Z,24.90
2018-05-23T19:15:08.368Z,24.80
2018-05-23T19:17:35.864Z,24.80
2018-05-23T19:20:03.481Z,24.70
2018-05-23T19:22:30.872Z,24.70
2018-05-23T19:24:58.353Z,24.60
2018-05-23T19:27:25.900Z,24.60
2018-05-23T19:29:53.411Z,24.50
2018-05-23T19:32:20.908Z,24.40
2018-05-23T19:34:49.308Z,24.40
2018-05-23T19:37:17.593Z,24.30
2018-05-23T19:39:45.943Z,24.30
2018-05-23T19:42:14.166Z,24.20
2018-05-23T19:44:41.660Z,24.30
2018-05-23T19:47:09.937Z,24.20
2018-05-23T19:49:38.214Z,24.20
2018-05-23T19:52:05.722Z,24.20
2018-05-23T19:54:33.218Z,24.20
2018-05-23T19:57:00.828Z,24.20
2018-05-23T19:59:29.113Z,24.10
2018-05-23T20:01:56.616Z,24.10
2018-05-23T20:04:25.113Z,24.00
2018-05-23T20:06:52.727Z,24.00
2018-05-23T20:09:20.215Z,24.00
2018-05-23T20:11:48.488Z,23.90
2018-05-23T20:14:16.124Z,23.90
2018-05-23T20:16:43.515Z,23.90
2018-05-23T20:19:11.017Z,23.80
2018-05-23T20:21:38.508Z,23.80
2018-05-23T20:24:06.029Z,23.80
2018-05-23T20:26:33.523Z,23.80
2018-05-23T20:29:01.023Z,23.70
2018-05-23T20:31:28.520Z,23.60
2018-05-23T20:33:56.784Z,23.60
2018-05-23T20:36:24.374Z,23.60
2018-05-23T20:38:51.903Z,23.60
2018-05-23T20:41:19.421Z,23.50
2018-05-23T20:43:47.678Z,23.50
2018-05-23T20:46:15.179Z,23.40
2018-05-23T20:48:42.715Z,23.40
2018-05-23T20:51:10.235Z,23.40
2018-05-23T20:53:37.769Z,23.30
2018-05-23T20:56:06.088Z,23.30
2018-05-23T20:58:33.631Z,23.30
2018-05-23T21:01:01.118Z,23.20
2018-05-23T21:03:28.599Z,23.20
2018-05-23T21:05:56.124Z,23.20
2018-05-23T21:08:23.636Z,23.20
2018-05-23T21:10:51.142Z,23.20
2018-05-23T21:13:18.663Z,23.20
2018-05-23T21:15:47.069Z,23.10
2018-05-23T21:18:14.556Z,23.10
2018-05-23T21:20:42.810Z,23.10
2018-05-23T21:23:10.319Z,23.10
2018-05-23T21:25:38.557Z,23.10
2018-05-23T21:28:06.085Z,23.10
2018-05-23T21:30:34.318Z,23.10
2018-05-23T21:33:01.959Z,23.00
2018-05-23T21:35:29.437Z,23.10
2018-05-23T21:37:57.060Z,23.00
2018-05-23T21:40:24.578Z,23.00
2018-05-23T21:42:52.093Z,23.00
2018-05-23T21:45:19.555Z,23.00
2018-05-23T21:47:47.045Z,23.00
2018-05-23T21:50:14.528Z,23.00
2018-05-23T21:52:42.081Z,23.00
2018-05-23T21:55:09.583Z,23.00
2018-05-23T21:57:37.066Z,22.90
2018-05-23T22:00:05.334Z,22.90
2018-05-23T22:02:33.608Z,22.90
2018-05-23T22:05:01.087Z,22.90
2018-05-23T22:07:28.649Z,22.80
2018-05-23T22:09:56.125Z,22.80
2018-05-23T22:12:23.663Z,22.80
2018-05-23T22:14:51.152Z,22.80
2018-05-23T22:17:18.669Z,22.70
2018-05-23T22:19:46.928Z,22.70
2018-05-23T22:22:14.442Z,22.70
2018-05-23T22:24:42.706Z,22.70
2018-05-23T22:27:10.229Z,22.60
2018-05-23T22:29:37.727Z,22.70
2018-05-23T22:32:05.200Z,22.60
2018-05-23T22:34:32.745Z,22.60
2018-05-23T22:37:00.358Z,22.60
2018-05-23T22:39:28.803Z,22.60
2018-05-23T22:41:56.338Z,22.50
2018-05-23T22:44:24.611Z,22.50
2018-05-23T22:46:52.163Z,22.50
2018-05-23T22:49:19.728Z,22.50
2018-05-23T22:51:47.198Z,22.50
2018-05-23T22:54:14.684Z,22.50
2018-05-23T22:56:42.201Z,22.40
2018-05-23T22:59:09.765Z,22.40
2018-05-23T23:01:38.063Z,22.40
2018-05-23T23:12:45.015Z,22.30
2018-05-23T23:15:12.534Z,22.20
2018-05-23T23:17:40.012Z,22.20
2018-05-23T23:20:07.532Z,22.20
2018-05-23T23:22:38.851Z,22.20
2018-05-23T23:25:06.484Z,22.20
2018-05-23T23:27:33.962Z,22.20
2018-05-23T23:30:01.455Z,22.20
2018-05-23T23:32:28.939Z,22.20
2018-05-23T23:34:56.494Z,22.20
2018-05-23T23:37:24.754Z,22.20
2018-05-23T23:39:52.276Z,22.20
2018-05-23T23:42:19.762Z,22.20
2018-05-23T23:44:47.259Z,22.20
2018-05-23T23:47:14.735Z,22.20
2018-05-23T23:49:42.276Z,22.10
2018-05-23T23:52:10.518Z,22.10
2018-05-23T23:54:38.781Z,22.00
2018-05-23T23:57:06.258Z,22.00
2018-05-23T23:59:33.753Z,22.00
